Sensho — JG5609 — position and weather

sailwx.info

Track history (hours):
 
Tides and Currents Weather Stations Pressure Air Temp Water Temp Dewpoint Dewpoint Depression Visibility Wind Speed Wind Dir Waves Ship Positions

Sensho

Last reported at 2017-Oct-20 03:43 UTC. Time now 2017-Oct-20 12:45 UTC.
Position N 34°35' E 135°27'.

Length 81 m; draft 4 m.

Type: Cargo ship. MMSI: 431100886.

Date/timePositionNaut miles runAvg speedWind from/ knotsBaromVisibWave heightAir tempDewpointWater temp
2017-Oct-20 03:43N 34°35' E 135°27'1 6.6
2017-Oct-20 03:30N 34°35' E 135°26'612.6
2017-Oct-20 03:00N 34°36' E 135°18'713.5
2017-Oct-20 02:30N 34°35' E 135°10'813.7
2017-Oct-20 01:56N 34°37' E 135°01'4 0.1
2017-Oct-18 10:05N 34°36' E 134°56'217.0
2017-Oct-18 09:58N 34°37' E 134°58'715.9
2017-Oct-18 09:30N 34°36' E 135°07'714.9
2017-Oct-18 09:00N 34°36' E 135°16'713.9
2017-Oct-18 08:30N 34°36' E 135°24'3 0.4
2017-Oct-18 01:37N 34°34' E 135°27'0 1.1
2017-Oct-18 01:29N 34°35' E 135°27'510.9
2017-Oct-18 01:01N 34°36' E 135°21'713.0
2017-Oct-18 00:31N 34°35' E 135°13'713.7
2017-Oct-18 00:00N 34°35' E 135°05'7 0.2
2017-Oct-16 08:39N 34°37' E 134°57'317.0
2017-Oct-16 08:30N 34°38' E 135°00'815.2
2017-Oct-16 08:00N 34°36' E 135°09'714.5
2017-Oct-16 07:30N 34°37' E 135°18'713.6
2017-Oct-16 07:00N 34°35' E 135°26'1 0.1
2017-Oct-15 22:21N 34°34' E 135°27'0 0.0
2017-Oct-15 20:45N 34°34' E 135°27'0 0.0
2017-Oct-15 20:27N 34°34' E 135°27'0 0.0
2017-Oct-15 19:57N 34°34' E 135°27'0 0.0
2017-Oct-15 19:15N 34°34' E 135°27'0 0.0
2017-Oct-15 18:57N 34°34' E 135°27'0 0.0
2017-Oct-15 18:27N 34°34' E 135°27'0 0.0
2017-Oct-15 17:57N 34°34' E 135°27'0 0.0
2017-Oct-15 17:21N 34°34' E 135°27'0 0.0
2017-Oct-15 16:51N 34°34' E 135°27'0 0.0
2017-Oct-15 16:27N 34°34' E 135°27'0 0.0
2017-Oct-15 15:57N 34°34' E 135°27'0 0.0
2017-Oct-15 15:27N 34°34' E 135°27'0 0.0
2017-Oct-15 14:57N 34°34' E 135°27'0 0.0
2017-Oct-15 13:33N 34°34' E 135°27'0 0.0
2017-Oct-15 13:27N 34°34' E 135°27'0 0.0
2017-Oct-15 12:57N 34°34' E 135°27'0 0.0
2017-Oct-15 12:27N 34°34' E 135°27'0 0.0
2017-Oct-15 10:51N 34°34' E 135°27'0 0.0
2017-Oct-15 05:33N 34°34' E 135°27'0 0.0
2017-Oct-15 05:27N 34°34' E 135°27'0 0.0
2017-Oct-15 04:57N 34°34' E 135°27'0 0.0
2017-Oct-15 03:37N 34°34' E 135°27'0 0.0
2017-Oct-15 03:28N 34°34' E 135°27'3 6.7
2017-Oct-15 03:01N 34°36' E 135°24'713.1
2017-Oct-15 02:30N 34°35' E 135°16'713.8
2017-Oct-15 02:00N 34°35' E 135°08'12 0.3
2017-Oct-13 11:38N 34°36' E 134°54'112.2
2017-Oct-13 11:30N 34°37' E 134°55'611.8
2017-Oct-13 11:00N 34°37' E 135°02'713.2
2017-Oct-13 10:30N 34°36' E 135°10'714.3
2017-Oct-13 10:00N 34°36' E 135°19'712.6
2017-Oct-13 09:29N 34°35' E 135°27'0 0.0
2017-Oct-13 02:23N 34°34' E 135°27'2 6.1
2017-Oct-13 02:00N 34°36' E 135°25'611.9
2017-Oct-13 01:30N 34°34' E 135°18'713.5
2017-Oct-13 01:00N 34°35' E 135°10'814.6
2017-Oct-13 00:28N 34°37' E 135°00'20 0.4
2017-Oct-11 00:01N 34°36' E 135°25'713.1
2017-Oct-10 23:31N 34°36' E 135°17'714.2
2017-Oct-10 22:59N 34°35' E 135°08'714.4
2017-Oct-10 22:30N 34°37' E 134°60'  
Track history (hours):
 
Tides and Currents Weather Stations Pressure Air Temp Water Temp Dewpoint Dewpoint Depression Visibility Wind Speed Wind Dir Waves Ship Positions

Sensho

Last reported at 2017-Oct-20 03:43 UTC. Time now 2017-Oct-20 12:45 UTC.
Position N 34°35' E 135°27'.

Length 81 m; draft 4 m.

Type: Cargo ship. MMSI: 431100886.

Date/timePositionNaut miles runAvg speedWind from/ knotsBaromVisibWave heightAir tempDewpointWater temp
2017-Oct-20 03:43N 34°35' E 135°27'1 6.6
2017-Oct-20 03:30N 34°35' E 135°26'612.6
2017-Oct-20 03:00N 34°36' E 135°18'713.5
2017-Oct-20 02:30N 34°35' E 135°10'813.7
2017-Oct-20 01:56N 34°37' E 135°01'4 0.1
2017-Oct-18 10:05N 34°36' E 134°56'217.0
2017-Oct-18 09:58N 34°37' E 134°58'715.9
2017-Oct-18 09:30N 34°36' E 135°07'714.9
2017-Oct-18 09:00N 34°36' E 135°16'713.9
2017-Oct-18 08:30N 34°36' E 135°24'3 0.4
2017-Oct-18 01:37N 34°34' E 135°27'0 1.1
2017-Oct-18 01:29N 34°35' E 135°27'510.9
2017-Oct-18 01:01N 34°36' E 135°21'713.0
2017-Oct-18 00:31N 34°35' E 135°13'713.7
2017-Oct-18 00:00N 34°35' E 135°05'7 0.2
2017-Oct-16 08:39N 34°37' E 134°57'317.0
2017-Oct-16 08:30N 34°38' E 135°00'815.2
2017-Oct-16 08:00N 34°36' E 135°09'714.5
2017-Oct-16 07:30N 34°37' E 135°18'713.6
2017-Oct-16 07:00N 34°35' E 135°26'1 0.1
2017-Oct-15 22:21N 34°34' E 135°27'0 0.0
2017-Oct-15 20:45N 34°34' E 135°27'0 0.0
2017-Oct-15 20:27N 34°34' E 135°27'0 0.0
2017-Oct-15 19:57N 34°34' E 135°27'0 0.0
2017-Oct-15 19:15N 34°34' E 135°27'0 0.0
2017-Oct-15 18:57N 34°34' E 135°27'0 0.0
2017-Oct-15 18:27N 34°34' E 135°27'0 0.0
2017-Oct-15 17:57N 34°34' E 135°27'0 0.0
2017-Oct-15 17:21N 34°34' E 135°27'0 0.0
2017-Oct-15 16:51N 34°34' E 135°27'0 0.0
2017-Oct-15 16:27N 34°34' E 135°27'0 0.0
2017-Oct-15 15:57N 34°34' E 135°27'0 0.0
2017-Oct-15 15:27N 34°34' E 135°27'0 0.0
2017-Oct-15 14:57N 34°34' E 135°27'0 0.0
2017-Oct-15 13:33N 34°34' E 135°27'0 0.0
2017-Oct-15 13:27N 34°34' E 135°27'0 0.0
2017-Oct-15 12:57N 34°34' E 135°27'0 0.0
2017-Oct-15 12:27N 34°34' E 135°27'0 0.0
2017-Oct-15 10:51N 34°34' E 135°27'0 0.0
2017-Oct-15 05:33N 34°34' E 135°27'0 0.0
2017-Oct-15 05:27N 34°34' E 135°27'0 0.0
2017-Oct-15 04:57N 34°34' E 135°27'0 0.0
2017-Oct-15 03:37N 34°34' E 135°27'0 0.0
2017-Oct-15 03:28N 34°34' E 135°27'3 6.7
2017-Oct-15 03:01N 34°36' E 135°24'713.1
2017-Oct-15 02:30N 34°35' E 135°16'713.8
2017-Oct-15 02:00N 34°35' E 135°08'12 0.3
2017-Oct-13 11:38N 34°36' E 134°54'112.2
2017-Oct-13 11:30N 34°37' E 134°55'611.8
2017-Oct-13 11:00N 34°37' E 135°02'713.2
2017-Oct-13 10:30N 34°36' E 135°10'714.3
2017-Oct-13 10:00N 34°36' E 135°19'712.6
2017-Oct-13 09:29N 34°35' E 135°27'0 0.0
2017-Oct-13 02:23N 34°34' E 135°27'2 6.1
2017-Oct-13 02:00N 34°36' E 135°25'611.9
2017-Oct-13 01:30N 34°34' E 135°18'713.5
2017-Oct-13 01:00N 34°35' E 135°10'814.6
2017-Oct-13 00:28N 34°37' E 135°00'20 0.4
2017-Oct-11 00:01N 34°36' E 135°25'713.1
2017-Oct-10 23:31N 34°36' E 135°17'714.2
2017-Oct-10 22:59N 34°35' E 135°08'714.4
2017-Oct-10 22:30N 34°37' E 134°60'  

Dump ship's entire track history